Howe Sound: Past 24 Hour Conditions

 

Sentry Shoal - 46131

11:00 AM PDT 23 October 2017Buoy position: 49.92N 125.0W
Disclaimer

This table is a summary of hourly weather conditions for the past 24 hours.
Please note that these observations might not always be representative of weather conditions over their associated marine area.

Date / Time
(PDT)
Wind(knots) Wave height(m) Wave period(s) Pressure(kPa) Air tempC) Water tempC)
23 October 2017
11:00 SE 12 gust 16 0.5 4.0 103.6 11 11
10:00 SE 10 gust 12 0.5 4.0 103.6 11 11
9:00 SE 12 gust 12 0.4 4.0 103.5 11 11
8:00 ESE 10 gust 12 0.3 3.0 103.5 11 11
7:00 SSE 8 gust 10 0.3 2.0 103.5 11 11
6:00 SE 8 gust 10 0.2 2.0 103.4 11 11
5:00 SSE 10 gust 12 0.2 2.0 103.3 10 11
4:00 calm 0.2 2.0 103.3 9 11
3:00 W 6 gust 8 0.1 2.0 103.3 9 11
2:00 WSW 6 gust 6 0.2 2.0 103.2 9 11
1:00 WNW 4 gust 6 0.2 2.0 103.1 10 11
0:00 W 4 gust 6 0.2 2.0 103.1 10 11
22 October 2017
23:00 WNW 4 gust 4 0.1 2.0 103.0 10 11
22:00 W 4 gust 4 0.1 3.0 102.9 10 11
21:00 SW 6 gust 6 0.1 2.0 102.8 11 11
20:00 W 4 gust 6 0.2 3.0 102.6 11 11
19:00 WSW 6 gust 8 0.2 3.0 102.5 11 11
18:00 W 8 gust 10 0.3 3.0 102.4 11 11
17:00 SE 2 gust 2 0.3 3.0 102.3 12 11
16:00 ESE 8 gust 12 0.4 3.0 102.1 12 11
15:00 ESE 10 gust 12 0.3 2.0 102.0 12 11
14:00 E 6 gust 8 0.1 2.0 101.9 12 11
13:00 E 4 gust 6 0.2 2.0 101.8 11 11
12:00 S 4 gust 6 0.1 2.0 101.7 11 11
11:00 WSW 2 gust 4 0.1 2.0 101.6 10 11

Zoom-in to make a selection

Map of Pacific - Georgia Basin marine weather areas Tsawwassen Ferry Terminal Sentry Shoal - 46131 Halibut Bank - 46146 La Perouse Bank - 46206 Discovery Island Esquimalt Harbour Kelp Reefs Malahat Race Rocks Lightstation Saturna Island Sheringham Point University of Victoria Victoria Gonzales Victoria Int'l Airport Ballenas Islands Campbell River Airport Comox Airport Entrance Island Fanny Island Nanaimo Airport Sisters Islets Estevan Point Tofino Airport Grief Point Powell River Airport Sechelt Point Atkinson Sand Heads Lightstation Vancouver Harbour Vancouver Int'l Airport West Vancouver Port Alberni Howe Sound - Pam Rocks Squamish Airport
Legend:
buoy Buoy
land station Land Station

Pacific - Georgia Basin Area

Another Region

What we are doing

Features

Summer 2017: Significant weather across Canada

By analyzing weather events, ECCC is collecting more information as to how our climate is changing.

Date modified: